Time;durP1;ratioP1;P1;durP2;ratioP2;P2;SDS_P1;SDS_P2;PMS_P1;PMS_P2;Temp;Humidity;BMP_temperature;BMP_pressure;BME280_temperature;BME280_humidity;BME280_pressure;Samples;Min_cycle;Max_cycle;Signal;HPM_P1;HPM_P2
2022/04/28 00:00:34;;;;;;;;;;;;;;;25.44;36.53;94712.53;5008899;28;7082;-52
2022/04/28 00:03:08;;;;;;;;;;;;;;;25.43;36.88;94713.75;4989607;28;7863;-52
2022/04/28 00:05:41;;;;;;;;;;;;;;;25.42;37.29;94717.78;4999326;28;9980;-48
2022/04/28 00:08:16;;;;;;;;;;;;;;;25.39;37.05;94707.72;4981315;28;8257;-52
2022/04/28 00:10:44;;;;;;;;;;;;;;;25.40;36.77;94709.25;4992005;28;7879;-51
2022/04/28 00:13:13;;;;;;;;;;;;;;;25.42;37.22;94710.25;4993895;28;9046;-52
2022/04/28 00:15:40;;;;;;;;;;;;;;;25.41;37.40;94714.25;4989667;28;9431;-49
2022/04/28 00:18:12;;;;;;;;;;;;;;;25.39;36.60;94704.97;5004676;28;9026;-53
2022/04/28 00:20:43;;;;;;;;;;;;;;;25.39;37.02;94710.50;4973822;28;7288;-51
2022/04/28 00:23:35;;;;;;;;;;;;;;;25.40;36.48;94701.00;4999698;28;7287;-53
2022/04/28 00:26:35;;;;;;;;;;;;;;;25.36;36.90;94703.97;4947186;28;7140;-52
2022/04/28 00:29:02;;;;;;;;;;;;;;;25.37;36.68;94705.50;4894796;29;7474;-51
2022/04/28 00:31:29;;;;;;;;;;;;;;;25.37;37.11;94701.97;4890517;29;7274;-51
2022/04/28 00:34:11;;;;;;;;;;;;;;;25.36;37.47;94703.22;4895011;29;9076;-49
2022/04/28 00:36:40;;;;;;;;;;;;;;;25.36;36.51;94711.47;4880959;29;8691;-51
2022/04/28 00:39:05;;;;;;;;;;;;;;;25.35;36.93;94699.72;4886493;29;7467;-51
2022/04/28 00:41:32;;;;;;;;;;;;;;;25.36;37.57;94703.97;4896339;29;7220;-52
2022/04/28 00:44:10;;;;;;;;;;;;;;;25.36;36.72;94705.97;4894076;29;7448;-53
2022/04/28 00:46:42;;;;;;;;;;;;;;;25.35;37.42;94699.72;4894641;29;7249;-52
2022/04/28 00:52:04;;;;;;;;;;;;;;;25.35;36.77;94696.22;4894140;29;8075;-50
2022/04/28 00:54:45;;;;;;;;;;;;;;;25.33;37.13;94690.47;4894412;29;7314;-51
2022/04/28 00:57:22;;;;;;;;;;;;;;;25.32;37.04;94695.22;4902066;29;7840;-52
2022/04/28 00:59:58;;;;;;;;;;;;;;;25.33;37.19;94693.22;4894198;29;7771;-52
2022/04/28 01:02:37;;;;;;;;;;;;;;;25.30;37.44;94699.72;4903351;29;9217;-51
2022/04/28 01:05:03;;;;;;;;;;;;;;;25.30;37.39;94700.47;4949591;28;7053;-52
2022/04/28 01:07:38;;;;;;;;;;;;;;;25.31;37.20;94704.00;5002760;28;6989;-52
2022/04/28 01:10:23;;;;;;;;;;;;;;;25.30;37.25;94694.22;4990748;28;7206;-51
2022/04/28 01:12:50;;;;;;;;;;;;;;;25.28;36.84;94694.72;4982346;28;7436;-52
2022/04/28 01:15:17;;;;;;;;;;;;;;;25.28;37.55;94693.97;4987854;28;7586;-51
2022/04/28 01:17:45;;;;;;;;;;;;;;;25.27;37.29;94690.47;4984729;28;9063;-53
2022/04/28 01:20:11;;;;;;;;;;;;;;;25.25;36.73;94690.22;4982825;28;9498;-51
2022/04/28 01:22:38;;;;;;;;;;;;;;;25.25;37.06;94695.72;4985765;28;6998;-51
2022/04/28 01:25:19;;;;;;;;;;;;;;;25.26;37.57;94701.97;4987712;28;7463;-51
2022/04/28 01:27:48;;;;;;;;;;;;;;;25.24;36.85;94696.97;4980964;28;7224;-52
2022/04/28 01:30:15;;;;;;;;;;;;;;;25.24;37.45;94702.50;4987990;28;8679;-51
2022/04/28 01:32:45;;;;;;;;;;;;;;;25.21;37.40;94691.72;5005884;28;7953;-49
2022/04/28 01:35:28;;;;;;;;;;;;;;;25.24;36.71;94694.22;4976786;28;9390;-52
2022/04/28 01:37:54;;;;;;;;;;;;;;;25.24;36.78;94687.97;4983284;28;7777;-52
2022/04/28 01:40:20;;;;;;;;;;;;;;;25.24;37.31;94693.47;4987961;28;7275;-52
2022/04/28 01:42:50;;;;;;;;;;;;;;;25.22;37.06;94684.97;4987039;28;9339;-52
2022/04/28 01:45:20;;;;;;;;;;;;;;;25.21;37.49;94695.22;4986549;28;8652;-53
2022/04/28 01:47:46;;;;;;;;;;;;;;;25.21;37.15;94695.22;5002690;28;9270;-49
2022/04/28 01:50:12;;;;;;;;;;;;;;;25.23;36.94;94697.47;4999219;28;7052;-51
2022/04/28 01:55:36;;;;;;;;;;;;;;;25.19;37.01;94694.22;4982587;28;9096;-52
2022/04/28 01:58:02;;;;;;;;;;;;;;;25.21;36.89;94699.97;4989721;28;8707;-52
2022/04/28 02:00:36;;;;;;;;;;;;;;;25.16;36.88;94692.47;4992908;28;9046;-51
2022/04/28 02:03:03;;;;;;;;;;;;;;;25.18;37.59;94699.00;4988360;28;7341;-51
2022/04/28 02:05:47;;;;;;;;;;;;;;;25.17;36.82;94697.47;5007046;28;10144;-52
2022/04/28 02:08:26;;;;;;;;;;;;;;;25.17;37.23;94697.47;4990861;28;9194;-48
2022/04/28 02:11:04;;;;;;;;;;;;;;;25.16;36.91;94704.25;4991426;28;7177;-50
2022/04/28 02:13:31;;;;;;;;;;;;;;;25.14;37.03;94697.75;4984045;28;7149;-53
2022/04/28 02:16:15;;;;;;;;;;;;;;;25.14;36.92;94703.97;4987896;28;9124;-52
2022/04/28 02:18:43;;;;;;;;;;;;;;;25.14;36.89;94706.00;4994122;28;7488;-52
2022/04/28 02:21:09;;;;;;;;;;;;;;;25.14;37.00;94700.50;4993805;28;9004;-52
2022/04/28 02:23:45;;;;;;;;;;;;;;;25.14;37.40;94708.75;4993739;28;8743;-47
2022/04/28 02:26:22;;;;;;;;;;;;;;;25.12;37.18;94705.75;4993887;28;9361;-52
2022/04/28 02:28:56;;;;;;;;;;;;;;;25.12;37.68;94708.50;5011810;28;7191;-53
2022/04/28 02:31:32;;;;;;;;;;;;;;;25.10;37.33;94711.72;4996750;28;9175;-48
2022/04/28 02:34:00;;;;;;;;;;;;;;;25.10;37.06;94711.72;4986220;28;7272;-51
2022/04/28 02:36:28;;;;;;;;;;;;;;;25.10;37.26;94711.72;4994630;28;8703;-47
2022/04/28 02:38:54;;;;;;;;;;;;;;;25.09;37.74;94707.50;4995886;28;7534;-52
2022/04/28 02:41:20;;;;;;;;;;;;;;;25.08;37.44;94716.22;4990995;28;9319;-51
2022/04/28 02:43:48;;;;;;;;;;;;;;;25.07;37.17;94717.50;4990984;28;9320;-49
2022/04/28 02:46:17;;;;;;;;;;;;;;;25.07;37.36;94712.75;4984412;28;9131;-51
2022/04/28 02:48:44;;;;;;;;;;;;;;;25.08;37.12;94716.22;5010246;28;7253;-53
2022/04/28 02:51:10;;;;;;;;;;;;;;;25.06;37.18;94724.25;5003868;28;8724;-53
2022/04/28 02:53:46;;;;;;;;;;;;;;;25.05;37.17;94720.75;4994657;28;9401;-52
2022/04/28 02:56:12;;;;;;;;;;;;;;;25.05;37.03;94717.25;5009658;28;8686;-52
2022/04/28 02:58:46;;;;;;;;;;;;;;;25.05;37.16;94725.50;4992572;28;7831;-51
2022/04/28 03:01:37;;;;;;;;;;;;;;;25.04;36.95;94729.50;4990721;28;7065;-51
2022/04/28 03:04:03;;;;;;;;;;;;;;;25.03;36.82;94728.00;4987913;28;10112;-48
2022/04/28 03:12:07;;;;;;;;;;;;;;;25.02;36.91;94726.50;4988856;28;9389;-53
2022/04/28 03:14:39;;;;;;;;;;;;;;;25.01;37.66;94720.22;5004646;28;7238;-49
2022/04/28 03:17:05;;;;;;;;;;;;;;;24.97;37.36;94722.47;4991227;28;7123;-53
2022/04/28 03:19:31;;;;;;;;;;;;;;;24.97;37.14;94721.75;4992559;28;7598;-51
2022/04/28 03:21:57;;;;;;;;;;;;;;;24.99;36.83;94724.75;5005046;28;9715;-52
2022/04/28 03:24:23;;;;;;;;;;;;;;;24.99;37.56;94711.00;5004795;28;8746;-51
2022/04/28 03:26:49;;;;;;;;;;;;;;;24.98;37.53;94721.25;5005059;28;7000;-52
2022/04/28 03:29:22;;;;;;;;;;;;;;;24.98;37.32;94726.00;4991983;28;9062;-51
2022/04/28 03:31:52;;;;;;;;;;;;;;;24.98;37.34;94734.25;4975566;28;9255;-53
2022/04/28 03:34:23;;;;;;;;;;;;;;;24.95;37.26;94732.47;4989899;28;9007;-51
2022/04/28 03:36:56;;;;;;;;;;;;;;;24.95;36.91;94733.22;4977144;28;7245;-49
2022/04/28 03:39:22;;;;;;;;;;;;;;;24.93;37.25;94738.50;5008594;28;7176;-52
2022/04/28 03:41:48;;;;;;;;;;;;;;;24.94;37.08;94742.00;4988780;28;9144;-50
2022/04/28 03:44:14;;;;;;;;;;;;;;;24.93;37.31;94738.50;4983025;28;7285;-51
2022/04/28 03:46:50;;;;;;;;;;;;;;;24.92;36.85;94741.75;4992593;28;7384;-48
2022/04/28 03:49:36;;;;;;;;;;;;;;;24.92;37.31;94739.00;4992641;28;8729;-50
2022/04/28 03:52:19;;;;;;;;;;;;;;;24.93;37.17;94730.22;5005504;28;9132;-48
2022/04/28 03:54:48;;;;;;;;;;;;;;;24.93;36.92;94740.47;4993898;28;9136;-49
2022/04/28 03:57:16;;;;;;;;;;;;;;;24.90;37.08;94733.25;4993691;28;7917;-52
2022/04/28 03:59:42;;;;;;;;;;;;;;;24.87;36.67;94740.47;5008540;28;9129;-52
2022/04/28 04:02:19;;;;;;;;;;;;;;;24.89;37.06;94737.97;4990235;28;9113;-53
2022/04/28 04:05:11;;;;;;;;;;;;;;;24.89;37.28;94740.75;4992461;28;7144;-52
2022/04/28 04:07:42;;;;;;;;;;;;;;;24.89;36.80;94746.25;4950232;28;8554;-53
2022/04/28 04:10:12;;;;;;;;;;;;;;;24.89;37.27;94745.47;4935552;28;8176;-52
2022/04/28 04:12:40;;;;;;;;;;;;;;;24.88;37.32;94744.00;4946119;28;7751;-51
2022/04/28 04:15:07;;;;;;;;;;;;;;;24.88;37.26;94750.22;4931102;28;9488;-51
2022/04/28 04:17:47;;;;;;;;;;;;;;;24.87;37.15;94751.50;4935200;28;8796;-50
2022/04/28 04:20:15;;;;;;;;;;;;;;;24.83;36.99;94748.22;4951978;28;7355;-51
2022/04/28 04:23:14;;;;;;;;;;;;;;;24.84;37.18;94754.50;4937001;28;9328;-50
2022/04/28 04:25:54;;;;;;;;;;;;;;;24.84;37.09;94760.72;4877420;29;9455;-48
2022/04/28 04:28:38;;;;;;;;;;;;;;;24.86;36.89;94768.50;4879197;29;9291;-52
2022/04/28 04:33:59;;;;;;;;;;;;;;;24.83;37.00;94763.97;4883454;29;7034;-52
2022/04/28 04:36:30;;;;;;;;;;;;;;;24.83;37.11;94769.50;4892472;29;9437;-51
2022/04/28 04:38:56;;;;;;;;;;;;;;;24.81;37.03;94767.25;4894060;29;9248;-51
2022/04/28 04:41:22;;;;;;;;;;;;;;;24.81;36.80;94766.47;4887135;29;9189;-48
2022/04/28 04:43:48;;;;;;;;;;;;;;;24.82;37.19;94773.47;4889092;29;9491;-49
2022/04/28 04:46:23;;;;;;;;;;;;;;;24.80;36.86;94773.22;4911070;29;9587;-52
2022/04/28 04:48:51;;;;;;;;;;;;;;;24.81;37.30;94775.50;4909501;29;7457;-55
2022/04/28 04:51:34;;;;;;;;;;;;;;;24.80;37.35;94775.97;4896041;29;7382;-50
2022/04/28 04:54:22;;;;;;;;;;;;;;;24.80;37.39;94784.22;4908381;29;9288;-51
2022/04/28 04:56:58;;;;;;;;;;;;;;;24.77;36.87;94786.00;4913638;29;9126;-51
2022/04/28 04:59:26;;;;;;;;;;;;;;;24.77;37.42;94788.75;4913422;29;9087;-52
2022/04/28 05:02:05;;;;;;;;;;;;;;;24.78;36.99;94789.47;4939696;28;7620;-50
2022/04/28 05:04:31;;;;;;;;;;;;;;;24.78;37.63;94792.97;5010232;28;9008;-52
2022/04/28 05:07:05;;;;;;;;;;;;;;;24.76;37.36;94791.97;4974460;28;9547;-49
2022/04/28 05:09:33;;;;;;;;;;;;;;;24.76;37.27;94798.22;4993394;28;9290;-51
2022/04/28 05:12:00;;;;;;;;;;;;;;;24.77;37.24;94799.75;4988924;28;7382;-49
2022/04/28 05:14:32;;;;;;;;;;;;;;;24.77;37.12;94805.25;5007375;28;7063;-51
2022/04/28 05:17:00;;;;;;;;;;;;;;;24.77;36.75;94813.50;4988182;28;7385;-48
2022/04/28 05:19:29;;;;;;;;;;;;;;;24.77;37.48;94810.00;5003302;28;6995;-52
2022/04/28 05:21:55;;;;;;;;;;;;;;;24.76;37.06;94808.47;4985449;28;7234;-48
2022/04/28 05:24:23;;;;;;;;;;;;;;;24.75;37.09;94812.47;5001462;28;7007;-51
2022/04/28 05:26:49;;;;;;;;;;;;;;;24.73;37.22;94814.94;4985407;28;9071;-52
2022/04/28 05:29:15;;;;;;;;;;;;;;;24.76;37.17;94819.47;5007981;28;7211;-51
2022/04/28 05:31:41;;;;;;;;;;;;;;;24.75;37.29;94818.00;4984794;28;9370;-52
2022/04/28 05:34:07;;;;;;;;;;;;;;;24.73;37.07;94827.44;4985732;28;6862;-52
2022/04/28 05:36:36;;;;;;;;;;;;;;;24.73;37.30;94827.44;5008911;28;9541;-53
2022/04/28 05:39:02;;;;;;;;;;;;;;;24.73;37.00;94827.44;4969782;28;9478;-52
2022/04/28 05:41:28;;;;;;;;;;;;;;;24.75;37.42;94829.00;4985512;28;7256;-50
2022/04/28 05:46:40;;;;;;;;;;;;;;;24.73;37.47;94830.19;4983631;28;7509;-51
2022/04/28 05:49:08;;;;;;;;;;;;;;;24.73;37.46;94835.69;4988615;28;9382;-52
2022/04/28 05:51:34;;;;;;;;;;;;;;;24.73;36.80;94838.44;5007128;28;7108;-52
2022/04/28 05:54:01;;;;;;;;;;;;;;;24.73;37.19;94843.94;4990547;28;7092;-51
2022/04/28 05:56:28;;;;;;;;;;;;;;;24.71;37.00;94835.44;4999919;28;7081;-53
2022/04/28 05:58:56;;;;;;;;;;;;;;;24.70;37.39;94842.19;4986811;28;8735;-49
2022/04/28 06:01:22;;;;;;;;;;;;;;;24.65;37.64;94831.91;4988812;28;6983;-53
2022/04/28 06:03:48;;;;;;;;;;;;;;;24.68;37.30;94841.19;5003623;28;9179;-53
2022/04/28 06:06:14;;;;;;;;;;;;;;;24.68;37.10;94846.69;5008019;28;8181;-53
2022/04/28 06:08:40;;;;;;;;;;;;;;;24.65;37.27;94853.16;4982214;28;7159;-52
2022/04/28 06:11:08;;;;;;;;;;;;;;;24.64;37.53;94852.41;4991290;28;9169;-53
2022/04/28 06:13:34;;;;;;;;;;;;;;;24.64;37.52;94851.69;4990382;28;9059;-52
2022/04/28 06:16:01;;;;;;;;;;;;;;;24.64;37.12;94857.91;4989872;28;7156;-52
2022/04/28 06:18:31;;;;;;;;;;;;;;;24.65;37.67;94864.16;4975934;28;7896;-52
2022/04/28 06:20:57;;;;;;;;;;;;;;;24.64;37.57;94857.19;4990392;28;6861;-50
2022/04/28 06:23:22;;;;;;;;;;;;;;;24.65;37.96;94861.41;4996884;28;8824;-51
2022/04/28 06:25:51;;;;;;;;;;;;;;;24.63;37.56;94867.41;4987804;28;7287;-52
2022/04/28 06:28:18;;;;;;;;;;;;;;;24.61;38.01;94864.41;5005429;28;9762;-51
2022/04/28 06:30:44;;;;;;;;;;;;;;;24.64;37.24;94871.66;4987917;28;9095;-51
2022/04/28 06:33:10;;;;;;;;;;;;;;;24.64;37.66;94868.91;5005488;28;7251;-52
2022/04/28 06:35:38;;;;;;;;;;;;;;;24.63;38.14;94872.91;5001329;28;9242;-52
2022/04/28 06:38:06;;;;;;;;;;;;;;;24.64;37.49;94873.69;4995288;28;8888;-49
2022/04/28 06:40:32;;;;;;;;;;;;;;;24.64;37.46;94873.69;4996984;28;9170;-51
2022/04/28 06:43:01;;;;;;;;;;;;;;;24.63;37.91;94866.66;4982326;28;9534;-51
2022/04/28 06:45:27;;;;;;;;;;;;;;;24.60;37.76;94878.63;5006875;28;9180;-51
2022/04/28 06:47:54;;;;;;;;;;;;;;;24.62;37.74;94879.66;4989574;28;7199;-51
2022/04/28 06:50:23;;;;;;;;;;;;;;;24.61;37.84;94885.66;4989543;28;9619;-52
2022/04/28 06:52:49;;;;;;;;;;;;;;;24.61;37.83;94888.41;4988305;28;7246;-53
2022/04/28 06:55:15;;;;;;;;;;;;;;;24.61;37.33;94886.41;5004652;28;9094;-51
2022/04/28 06:57:41;;;;;;;;;;;;;;;24.59;37.50;94888.91;4982797;28;7290;-49
2022/04/28 07:00:13;;;;;;;;;;;;;;;24.57;37.96;94891.41;4991608;28;7423;-51
2022/04/28 07:02:39;;;;;;;;;;;;;;;24.57;37.79;94888.66;4976428;28;8783;-52
2022/04/28 07:05:14;;;;;;;;;;;;;;;24.58;37.84;94886.63;4991037;28;9064;-52
2022/04/28 07:07:40;;;;;;;;;;;;;;;24.55;37.71;94880.13;4990226;28;7044;-51
2022/04/28 07:10:10;;;;;;;;;;;;;;;24.58;37.84;94900.38;4982413;28;7281;-51
2022/04/28 07:12:42;;;;;;;;;;;;;;;24.58;38.28;94900.38;5007640;28;9476;-52
2022/04/28 07:15:38;;;;;;;;;;;;;;;24.58;37.73;94894.88;5008142;28;7017;-49
2022/04/28 07:18:14;;;;;;;;;;;;;;;24.55;37.72;94893.13;4984905;28;7376;-51
2022/04/28 07:21:03;;;;;;;;;;;;;;;24.54;38.08;94897.88;4987816;28;7283;-49
2022/04/28 07:23:39;;;;;;;;;;;;;;;24.55;37.83;94898.63;4999122;28;7075;-50
2022/04/28 07:26:07;;;;;;;;;;;;;;;24.58;38.05;94897.63;4985949;28;8370;-49
2022/04/28 07:28:34;;;;;;;;;;;;;;;24.57;37.69;94891.41;4991328;28;7053;-51
2022/04/28 07:31:03;;;;;;;;;;;;;;;24.58;37.54;94892.88;4974432;28;9141;-47
2022/04/28 07:33:42;;;;;;;;;;;;;;;24.58;37.86;94892.88;4981396;28;9117;-52
2022/04/28 07:36:18;;;;;;;;;;;;;;;24.59;38.32;94893.66;4972279;28;7099;-51
2022/04/28 07:38:44;;;;;;;;;;;;;;;24.58;37.73;94886.63;4985540;28;9319;-51
2022/04/28 07:41:12;;;;;;;;;;;;;;;24.59;37.56;94890.91;4975568;28;8424;-53
2022/04/28 07:43:38;;;;;;;;;;;;;;;24.59;37.88;94897.16;4975766;28;7609;-50
2022/04/28 07:46:04;;;;;;;;;;;;;;;24.60;37.78;94898.66;4984004;28;8615;-52
2022/04/28 07:48:40;;;;;;;;;;;;;;;24.60;37.92;94900.63;4980202;28;7153;-52
2022/04/28 07:51:06;;;;;;;;;;;;;;;24.59;37.28;94902.66;4977633;28;7350;-52
2022/04/28 07:53:32;;;;;;;;;;;;;;;24.61;37.88;94904.91;4982820;28;7058;-51
2022/04/28 07:56:14;;;;;;;;;;;;;;;24.60;37.68;94904.16;4999176;28;9173;-52
2022/04/28 07:58:42;;;;;;;;;;;;;;;24.60;38.07;94904.16;4988026;28;9078;-53
2022/04/28 08:01:12;;;;;;;;;;;;;;;24.57;37.57;94899.66;4973317;28;6973;-52
2022/04/28 08:03:42;;;;;;;;;;;;;;;24.61;37.62;94911.16;4980943;28;7005;-53
2022/04/28 08:06:08;;;;;;;;;;;;;;;24.61;37.58;94908.41;4976485;28;7503;-53
2022/04/28 08:08:35;;;;;;;;;;;;;;;24.61;37.28;94913.91;4987304;28;8842;-52
2022/04/28 08:11:03;;;;;;;;;;;;;;;24.61;37.96;94913.91;4984124;28;9269;-51
2022/04/28 08:13:31;;;;;;;;;;;;;;;24.61;37.92;94915.91;4987872;28;7369;-52
2022/04/28 08:15:57;;;;;;;;;;;;;;;24.62;37.61;94918.16;4995675;28;7674;-49
2022/04/28 08:18:25;;;;;;;;;;;;;;;24.61;38.06;94921.41;5002378;28;7474;-52
2022/04/28 08:20:50;;;;;;;;;;;;;;;24.58;37.87;94914.88;4987963;28;7178;-49
2022/04/28 08:23:19;;;;;;;;;;;;;;;24.61;38.01;94919.41;4990198;28;7596;-52
2022/04/28 08:25:44;;;;;;;;;;;;;;;24.59;37.62;94927.41;4990100;28;9101;-53
2022/04/28 08:28:10;;;;;;;;;;;;;;;24.55;37.83;94918.63;4991814;28;8939;-50
2022/04/28 08:30:36;;;;;;;;;;;;;;;24.60;37.61;94922.63;4988407;28;9537;-51
2022/04/28 08:33:04;;;;;;;;;;;;;;;24.60;37.96;94928.13;4988412;28;9214;-53
2022/04/28 08:35:31;;;;;;;;;;;;;;;24.61;37.99;94927.66;4989684;28;8750;-50
2022/04/28 08:38:00;;;;;;;;;;;;;;;24.61;37.39;94922.16;4985435;28;9207;-52
2022/04/28 08:40:26;;;;;;;;;;;;;;;24.61;37.75;94918.66;4979916;28;7270;-51
2022/04/28 08:42:55;;;;;;;;;;;;;;;24.66;37.72;94934.44;4987853;28;9457;-53
2022/04/28 08:45:29;;;;;;;;;;;;;;;24.65;37.50;94930.94;4990405;28;7255;-52
2022/04/28 08:48:05;;;;;;;;;;;;;;;24.66;38.24;94931.69;4989471;28;7252;-50
2022/04/28 08:50:41;;;;;;;;;;;;;;;24.66;37.90;94937.94;4991012;28;7925;-52
2022/04/28 08:53:27;;;;;;;;;;;;;;;24.65;37.66;94930.19;4988129;28;7358;-51
2022/04/28 08:56:03;;;;;;;;;;;;;;;24.70;37.49;94937.72;4983012;28;8971;-51
2022/04/28 08:58:29;;;;;;;;;;;;;;;24.70;37.62;94938.47;4995736;28;9322;-51
2022/04/28 09:00:55;;;;;;;;;;;;;;;24.68;38.05;94940.94;5000306;28;7400;-49
2022/04/28 09:03:24;;;;;;;;;;;;;;;24.69;38.03;94939.72;4998531;28;9043;-51
2022/04/28 09:05:51;;;;;;;;;;;;;;;24.67;37.86;94928.44;4986936;28;9058;-49
2022/04/28 09:08:30;;;;;;;;;;;;;;;24.71;37.79;94941.97;4987749;28;9070;-51
2022/04/28 09:11:00;;;;;;;;;;;;;;;24.65;37.65;94943.94;4982491;28;8935;-49
2022/04/28 09:16:40;;;;;;;;;;;;;;;24.68;37.58;94940.22;4991201;28;9227;-51
2022/04/28 09:19:06;;;;;;;;;;;;;;;24.67;37.91;94942.19;4990686;28;7224;-52
2022/04/28 09:21:35;;;;;;;;;;;;;;;24.66;37.90;94937.19;4997128;28;8686;-50
2022/04/28 09:24:02;;;;;;;;;;;;;;;24.68;37.63;94948.47;4997304;28;7990;-50
2022/04/28 09:26:32;;;;;;;;;;;;;;;24.68;38.03;94938.19;4995278;28;7215;-52
2022/04/28 09:29:02;;;;;;;;;;;;;;;24.68;38.00;94940.22;4981888;28;8869;-53
2022/04/28 09:31:33;;;;;;;;;;;;;;;24.69;37.81;94944.44;4994027;28;8052;-50
2022/04/28 09:34:13;;;;;;;;;;;;;;;24.66;37.93;94932.44;4982186;28;7238;-52
2022/04/28 09:36:50;;;;;;;;;;;;;;;24.69;38.28;94942.47;5012146;28;7892;-53
2022/04/28 09:44:53;;;;;;;;;;;;;;;24.71;37.52;94941.97;4993269;28;6868;-51
2022/04/28 09:48:00;;;;;;;;;;;;;;;24.71;37.81;94939.97;4996950;28;7264;-53
2022/04/28 09:50:30;;;;;;;;;;;;;;;24.71;37.79;94942.72;4941836;28;9345;-51
2022/04/28 09:53:03;;;;;;;;;;;;;;;24.70;37.87;94943.97;4921959;28;9106;-52
2022/04/28 09:55:32;;;;;;;;;;;;;;;24.73;37.85;94944.25;4947437;28;8996;-51
2022/04/28 09:57:58;;;;;;;;;;;;;;;24.71;37.80;94939.22;4903272;29;7544;-53
2022/04/28 10:00:24;;;;;;;;;;;;;;;24.73;37.59;94942.97;4941860;28;9061;-51
2022/04/28 10:02:52;;;;;;;;;;;;;;;24.73;37.38;94940.22;4920860;29;9045;-53
2022/04/28 10:05:25;;;;;;;;;;;;;;;24.73;37.56;94942.22;4915467;29;6966;-52
2022/04/28 10:07:53;;;;;;;;;;;;;;;24.77;37.37;94945.53;4920151;29;7326;-51
2022/04/28 10:10:19;;;;;;;;;;;;;;;24.77;37.45;94939.28;4922837;29;9013;-52
2022/04/28 10:12:47;;;;;;;;;;;;;;;24.76;38.04;94938.53;4919637;28;7800;-51
2022/04/28 10:15:15;;;;;;;;;;;;;;;24.76;38.10;94938.53;4924200;28;8802;-52
2022/04/28 10:18:01;;;;;;;;;;;;;;;24.77;37.12;94942.03;4927926;28;7138;-52
2022/04/28 10:20:45;;;;;;;;;;;;;;;24.79;37.33;94939.53;4919563;28;7641;-53
2022/04/28 10:23:15;;;;;;;;;;;;;;;24.78;37.53;94943.53;4927432;28;9764;-53
2022/04/28 10:34:30;;;;;;;;;;;;;;;24.78;37.54;94933.28;4994912;28;7707;-52
2022/04/28 10:37:04;;;;;;;;;;;;;;;24.81;37.41;94937.81;4993533;28;8253;-50
2022/04/28 10:39:45;;;;;;;;;;;;;;;24.82;37.23;94938.53;4994792;28;7277;-52
2022/04/28 10:42:42;;;;;;;;;;;;;;;24.82;37.58;94942.06;4984197;28;7878;-53
2022/04/28 10:45:20;;;;;;;;;;;;;;;24.83;37.29;94940.06;5008875;28;8798;-51
2022/04/28 10:48:38;;;;;;;;;;;;;;;24.84;37.79;94945.06;5012090;28;7253;-52
2022/04/28 10:51:11;;;;;;;;;;;;;;;24.83;37.59;94943.56;4948221;28;7229;-51
2022/04/28 10:53:55;;;;;;;;;;;;;;;24.86;37.30;94948.06;4963402;28;7078;-52
2022/04/28 10:56:44;;;;;;;;;;;;;;;24.86;37.55;94952.84;4981583;28;9091;-52
2022/04/28 10:59:25;;;;;;;;;;;;;;;24.88;37.43;94953.09;4953928;28;7538;-50
2022/04/28 11:01:51;;;;;;;;;;;;;;;24.89;37.31;94951.84;4965036;28;7287;-54
2022/04/28 11:04:25;;;;;;;;;;;;;;;24.91;37.77;94952.88;4951642;28;7614;-52
2022/04/28 11:07:07;;;;;;;;;;;;;;;24.91;37.10;94949.34;4971644;28;8740;-52
2022/04/28 11:10:00;;;;;;;;;;;;;;;24.93;37.37;94949.59;4959373;28;7066;-53
2022/04/28 11:12:38;;;;;;;;;;;;;;;24.93;37.74;94950.38;4944480;28;9209;-51
2022/04/28 11:15:12;;;;;;;;;;;;;;;24.94;37.10;94951.88;4951308;28;8754;-52
2022/04/28 11:17:43;;;;;;;;;;;;;;;24.95;37.81;94955.38;4972327;28;6991;-52
2022/04/28 11:20:14;;;;;;;;;;;;;;;24.96;37.48;94962.41;4949094;28;7059;-52
2022/04/28 11:22:46;;;;;;;;;;;;;;;24.95;37.48;94956.13;4956238;28;8759;-52
2022/04/28 11:25:16;;;;;;;;;;;;;;;24.97;37.33;94956.38;4971496;28;7250;-53
2022/04/28 11:27:49;;;;;;;;;;;;;;;24.97;37.25;94950.88;4983997;28;9265;-55
2022/04/28 11:30:48;;;;;;;;;;;;;;;24.99;36.98;94953.16;4991923;28;9045;-49
2022/04/28 11:33:14;;;;;;;;;;;;;;;24.96;37.37;94954.91;4982966;28;9152;-52
2022/04/28 11:35:49;;;;;;;;;;;;;;;25.01;37.14;94945.16;4991660;28;9379;-51
2022/04/28 11:38:24;;;;;;;;;;;;;;;25.02;37.65;94947.41;4974889;28;9431;-51
2022/04/28 11:41:03;;;;;;;;;;;;;;;25.03;37.14;94959.94;4990971;28;9122;-52
2022/04/28 11:43:31;;;;;;;;;;;;;;;25.04;37.48;94952.41;4979664;28;9303;-53
2022/04/28 11:46:01;;;;;;;;;;;;;;;25.05;37.42;94949.19;4972195;28;8765;-52
2022/04/28 11:48:42;;;;;;;;;;;;;;;25.06;37.36;94952.66;4967531;28;8926;-51
2022/04/28 11:51:22;;;;;;;;;;;;;;;25.05;37.04;94951.19;4965625;28;7267;-51
2022/04/28 11:53:58;;;;;;;;;;;;;;;25.08;37.67;94950.19;4975890;28;9100;-49
2022/04/28 11:56:41;;;;;;;;;;;;;;;25.09;37.39;94946.19;4981592;28;7262;-52
2022/04/28 11:59:10;;;;;;;;;;;;;;;25.09;37.22;94943.44;4980435;28;7016;-52
2022/04/28 12:01:48;;;;;;;;;;;;;;;25.10;37.37;94940.19;4958388;28;7283;-53
2022/04/28 12:04:27;;;;;;;;;;;;;;;25.13;37.37;94949.47;4990117;28;7201;-53
2022/04/28 12:07:18;;;;;;;;;;;;;;;25.13;37.51;94952.22;4990016;28;7184;-50
2022/04/28 12:15:29;;;;;;;;;;;;;;;25.14;37.14;94942.72;4984529;28;9119;-52
2022/04/28 12:21:01;;;;;;;;;;;;;;;25.14;37.60;94954.47;4949376;28;9088;-53
2022/04/28 12:23:39;;;;;;;;;;;;;;;25.15;36.99;94949.72;4951442;28;8860;-52
2022/04/28 12:26:07;;;;;;;;;;;;;;;25.13;36.79;94950.22;4932724;28;7652;-53
2022/04/28 12:28:40;;;;;;;;;;;;;;;25.17;37.33;94958.22;4949158;28;6869;-52
2022/04/28 12:31:11;;;;;;;;;;;;;;;25.16;36.93;94954.00;4946652;28;9612;-50
2022/04/28 12:33:40;;;;;;;;;;;;;;;25.14;36.78;94954.47;4947332;28;7768;-52
2022/04/28 12:36:16;;;;;;;;;;;;;;;25.16;37.61;94954.00;4931023;28;7282;-52
2022/04/28 12:38:56;;;;;;;;;;;;;;;25.18;37.24;94951.50;4945637;28;7212;-53
2022/04/28 12:41:30;;;;;;;;;;;;;;;25.21;36.71;94950.47;4950997;28;7277;-51
2022/04/28 12:43:58;;;;;;;;;;;;;;;25.19;37.34;94952.97;4929017;28;8876;-53
2022/04/28 12:46:36;;;;;;;;;;;;;;;25.22;37.14;94949.25;4946891;28;7385;-51
2022/04/28 12:49:09;;;;;;;;;;;;;;;25.23;37.43;94948.75;4945699;28;9025;-52
2022/04/28 12:51:51;;;;;;;;;;;;;;;25.24;37.05;94946.75;4925899;28;8904;-52
2022/04/28 12:54:24;;;;;;;;;;;;;;;25.21;37.46;94931.22;4943216;28;7475;-53
2022/04/28 12:57:00;;;;;;;;;;;;;;;25.27;36.95;94943.03;4964072;28;8792;-51
2022/04/28 12:59:37;;;;;;;;;;;;;;;25.26;37.25;94944.25;5004896;28;7230;-51
2022/04/28 13:02:06;;;;;;;;;;;;;;;25.27;36.91;94943.75;4999170;28;9539;-52
2022/04/28 13:04:37;;;;;;;;;;;;;;;25.29;37.65;94935.75;5005937;28;9277;-52
2022/04/28 13:07:05;;;;;;;;;;;;;;;25.32;37.34;94940.28;5001029;28;7207;-53
2022/04/28 13:09:39;;;;;;;;;;;;;;;25.30;37.43;94934.50;4988458;28;7818;-52
2022/04/28 13:12:10;;;;;;;;;;;;;;;25.35;37.55;94930.28;4990834;28;9213;-52
2022/04/28 13:14:43;;;;;;;;;;;;;;;25.37;37.47;94930.53;5006295;28;6998;-53
2022/04/28 13:17:28;;;;;;;;;;;;;;;25.36;37.56;94927.00;4998163;28;7279;-52
2022/04/28 13:19:55;;;;;;;;;;;;;;;25.38;37.09;94923.78;4986597;28;7234;-52
2022/04/28 13:22:23;;;;;;;;;;;;;;;25.37;37.24;94927.78;4997280;28;9410;-53
2022/04/28 13:24:50;;;;;;;;;;;;;;;25.40;37.31;94924.78;4988826;28;8738;-51
2022/04/28 13:27:17;;;;;;;;;;;;;;;25.38;37.02;94921.75;4987541;28;8954;-51
2022/04/28 13:29:50;;;;;;;;;;;;;;;25.43;37.33;94926.56;5003438;28;9164;-53
2022/04/28 13:32:20;;;;;;;;;;;;;;;25.46;37.74;94918.56;4981469;28;8657;-52
2022/04/28 13:34:47;;;;;;;;;;;;;;;25.48;37.55;94916.81;5001797;28;7281;-53
2022/04/28 13:37:15;;;;;;;;;;;;;;;25.51;37.49;94912.31;5003955;28;9116;-51
2022/04/28 13:39:44;;;;;;;;;;;;;;;25.50;37.32;94902.53;4983031;28;9482;-53
2022/04/28 13:42:11;;;;;;;;;;;;;;;25.56;36.73;94909.56;4987170;28;7460;-52
2022/04/28 13:44:40;;;;;;;;;;;;;;;25.58;36.87;94909.09;4988009;28;9143;-53
2022/04/28 13:47:07;;;;;;;;;;;;;;;25.59;36.64;94908.59;4986083;28;7334;-53
2022/04/28 13:49:38;;;;;;;;;;;;;;;25.61;37.34;94899.81;5002286;28;8687;-52
2022/04/28 13:52:04;;;;;;;;;;;;;;;25.64;37.26;94899.59;4986270;28;8863;-56
2022/04/28 13:54:30;;;;;;;;;;;;;;;25.63;37.23;94894.56;5002458;28;7076;-53
2022/04/28 13:56:57;;;;;;;;;;;;;;;25.68;36.84;94900.09;4987574;28;9584;-54
2022/04/28 13:59:23;;;;;;;;;;;;;;;25.69;37.03;94898.06;4984703;28;9077;-53
2022/04/28 14:01:49;;;;;;;;;;;;;;;25.70;37.33;94889.31;5000343;28;9385;-54
2022/04/28 14:04:18;;;;;;;;;;;;;;;25.72;37.18;94897.81;4980940;28;9114;-53